createdAt,value
2018-07-05T00:00:22.963Z,4.10
2018-07-05T00:03:02.922Z,4.67
2018-07-05T00:05:42.780Z,4.03
2018-07-05T00:08:22.535Z,4.20
2018-07-05T00:11:02.277Z,4.20
2018-07-05T00:13:42.169Z,3.93
2018-07-05T00:16:22.059Z,4.00
2018-07-05T00:19:02.085Z,3.90
2018-07-05T00:21:41.811Z,4.77
2018-07-05T00:24:21.636Z,4.10
2018-07-05T00:27:01.572Z,3.90
2018-07-05T00:29:41.466Z,4.50
2018-07-05T00:32:21.387Z,4.40
2018-07-05T00:35:01.250Z,4.40
2018-07-05T00:37:41.049Z,3.97
2018-07-05T00:40:20.752Z,4.80
2018-07-05T00:43:00.701Z,5.27
2018-07-05T00:45:40.632Z,4.50
2018-07-05T00:48:20.689Z,4.40
2018-07-05T00:51:00.563Z,5.00
2018-07-05T00:53:40.623Z,4.60
2018-07-05T00:56:20.837Z,4.50
2018-07-05T00:59:00.660Z,4.30
2018-07-05T01:01:40.680Z,3.90
2018-07-05T01:04:20.414Z,4.43
2018-07-05T01:07:00.176Z,3.97
2018-07-05T01:09:39.969Z,4.30
2018-07-05T01:12:19.872Z,4.00
2018-07-05T01:14:59.856Z,5.40
2018-07-05T01:17:39.589Z,3.90
2018-07-05T01:20:19.417Z,4.30
2018-07-05T01:22:59.265Z,4.43
2018-07-05T01:25:39.140Z,4.83
2018-07-05T01:28:19.239Z,4.10
2018-07-05T01:30:59.171Z,4.60
2018-07-05T01:33:39.152Z,4.83
2018-07-05T01:36:19.217Z,4.37
2018-07-05T01:38:59.161Z,4.80
2018-07-05T01:41:38.853Z,4.30
2018-07-05T01:44:18.798Z,5.23
2018-07-05T01:46:58.682Z,5.00
2018-07-05T01:49:38.531Z,6.30
2018-07-05T01:52:18.362Z,4.20
2018-07-05T01:54:58.169Z,4.00
2018-07-05T01:57:37.975Z,4.80
2018-07-05T02:00:11.744Z,4.30
2018-07-05T02:02:52.182Z,4.70
2018-07-05T02:05:32.012Z,5.43
2018-07-05T02:08:11.778Z,4.63
2018-07-05T02:10:51.621Z,5.70
2018-07-05T02:13:31.852Z,4.77
2018-07-05T02:16:11.800Z,5.33
2018-07-05T02:18:51.644Z,4.67
2018-07-05T02:21:31.640Z,4.60
2018-07-05T02:24:11.421Z,5.22
2018-07-05T02:26:51.271Z,5.10
2018-07-05T02:29:31.129Z,5.23
2018-07-05T02:32:11.178Z,4.93
2018-07-05T02:34:51.042Z,4.70
2018-07-05T02:37:36.369Z,5.70
2018-07-05T02:40:16.331Z,5.23
2018-07-05T02:42:56.313Z,4.60
2018-07-05T02:45:36.160Z,5.20
2018-07-05T02:48:15.993Z,5.13
2018-07-05T02:50:55.822Z,5.33
2018-07-05T02:53:35.713Z,5.30
2018-07-05T02:56:15.588Z,5.10
2018-07-05T02:58:55.339Z,6.30
2018-07-05T03:01:29.276Z,5.30
2018-07-05T03:04:09.185Z,5.80
2018-07-05T03:06:48.994Z,4.93
2018-07-05T03:09:28.826Z,5.33
2018-07-05T03:12:08.629Z,5.77
2018-07-05T03:14:48.560Z,6.30
2018-07-05T03:17:28.442Z,5.43
2018-07-05T03:20:08.307Z,5.77
2018-07-05T03:22:48.217Z,5.60
2018-07-05T03:25:28.093Z,5.87
2018-07-05T03:28:08.044Z,5.73
2018-07-05T03:30:47.939Z,5.30
2018-07-05T03:33:27.818Z,5.97
2018-07-05T03:36:07.763Z,5.20
2018-07-05T03:38:47.625Z,6.40
2018-07-05T03:41:27.421Z,5.20
2018-07-05T03:44:07.497Z,6.60
2018-07-05T03:46:47.177Z,6.20
2018-07-05T03:49:27.306Z,7.63
2018-07-05T03:52:07.296Z,5.10
2018-07-05T03:54:47.034Z,5.57
2018-07-05T03:57:27.014Z,5.47
2018-07-05T04:00:06.711Z,6.30
2018-07-05T04:02:46.627Z,10.77
2018-07-05T04:05:26.696Z,9.73
2018-07-05T04:08:06.509Z,8.30
2018-07-05T04:10:46.499Z,8.67
2018-07-05T04:13:26.546Z,6.17
2018-07-05T04:16:06.209Z,6.67
2018-07-05T04:18:45.929Z,6.40
2018-07-05T04:21:25.837Z,8.80
2018-07-05T04:24:05.825Z,8.93
2018-07-05T04:26:45.768Z,9.67
2018-07-05T04:29:25.689Z,7.83
2018-07-05T04:32:05.812Z,5.50
2018-07-05T04:34:45.605Z,5.57
2018-07-05T04:37:25.475Z,6.43
2018-07-05T04:40:05.353Z,5.90
2018-07-05T04:42:45.373Z,6.20
2018-07-05T04:45:25.212Z,6.57
2018-07-05T04:48:05.058Z,6.17
2018-07-05T04:50:45.000Z,6.07
2018-07-05T04:53:24.702Z,6.57
2018-07-05T04:56:04.793Z,6.30
2018-07-05T04:58:44.828Z,6.27
2018-07-05T05:01:18.596Z,7.17
2018-07-05T05:03:58.518Z,8.20
2018-07-05T05:06:38.426Z,8.90
2018-07-05T05:09:18.246Z,11.20
2018-07-05T05:11:58.043Z,13.50
2018-07-05T05:14:37.994Z,18.20
2018-07-05T05:17:17.950Z,18.80
2018-07-05T05:19:57.796Z,17.50
2018-07-05T05:22:37.673Z,13.80
2018-07-05T05:25:17.383Z,12.07
2018-07-05T05:27:57.199Z,9.40
2018-07-05T05:30:37.037Z,8.03
2018-07-05T05:33:16.951Z,6.50
2018-07-05T05:35:56.816Z,6.10
2018-07-05T05:38:36.670Z,7.30
2018-07-05T05:41:16.416Z,6.83
2018-07-05T05:43:56.267Z,6.23
2018-07-05T05:46:36.013Z,5.20
2018-07-05T05:49:15.804Z,7.27
2018-07-05T05:51:55.567Z,7.53
2018-07-05T05:54:35.369Z,6.33
2018-07-05T05:57:15.277Z,6.00
2018-07-05T05:59:55.199Z,5.00
2018-07-05T06:02:35.097Z,4.67
2018-07-05T06:05:14.953Z,5.23
2018-07-05T06:07:54.788Z,5.00
2018-07-05T06:10:34.758Z,11.10
2018-07-05T06:13:14.686Z,5.50
2018-07-05T06:15:54.436Z,5.73
2018-07-05T06:18:34.201Z,7.10
2018-07-05T06:21:14.034Z,5.47
2018-07-05T06:23:53.944Z,6.30
2018-07-05T06:26:33.675Z,9.73
2018-07-05T06:29:13.519Z,6.17
2018-07-05T06:31:54.374Z,6.70
2018-07-05T06:34:34.138Z,5.53
2018-07-05T06:37:14.033Z,6.20
2018-07-05T06:39:53.847Z,5.00
2018-07-05T06:42:33.661Z,7.63
2018-07-05T06:45:13.549Z,5.60
2018-07-05T06:47:53.334Z,4.90
2018-07-05T06:50:33.460Z,6.03
2018-07-05T06:53:13.386Z,4.87
2018-07-05T06:55:53.332Z,6.00
2018-07-05T06:58:33.131Z,8.53
2018-07-05T07:01:12.825Z,5.30
2018-07-05T07:03:52.957Z,4.83
2018-07-05T07:06:32.705Z,7.10
2018-07-05T07:09:12.611Z,4.67
2018-07-05T07:11:52.418Z,4.77
2018-07-05T07:14:32.226Z,5.47
2018-07-05T07:17:12.093Z,4.27
2018-07-05T07:19:51.950Z,4.80
2018-07-05T07:22:31.839Z,5.00
2018-07-05T07:25:11.662Z,5.87
2018-07-05T07:27:51.538Z,7.30
2018-07-05T07:30:31.323Z,6.40
2018-07-05T07:33:11.233Z,6.53
2018-07-05T07:35:50.991Z,6.13
2018-07-05T07:38:30.968Z,4.60
2018-07-05T07:41:10.816Z,9.17
2018-07-05T07:43:38.279Z,8.40
2018-07-05T07:46:05.706Z,4.90
2018-07-05T07:48:33.128Z,5.50
2018-07-05T07:51:00.587Z,6.47
2018-07-05T07:53:28.034Z,7.40
2018-07-05T07:55:55.468Z,8.93
2018-07-05T07:58:22.888Z,4.90
2018-07-05T08:00:50.325Z,5.20
2018-07-05T08:03:17.769Z,5.30
2018-07-05T08:05:45.213Z,7.83
2018-07-05T08:08:12.757Z,7.03
2018-07-05T08:10:40.145Z,6.90
2018-07-05T08:13:07.593Z,6.60
2018-07-05T08:15:35.036Z,5.97
2018-07-05T08:18:02.445Z,8.10
2018-07-05T08:20:29.951Z,4.60
2018-07-05T08:22:57.373Z,5.73
2018-07-05T08:25:24.822Z,6.10
2018-07-05T08:27:52.241Z,5.37
2018-07-05T08:30:19.736Z,4.70
2018-07-05T08:32:47.159Z,5.17
2018-07-05T08:35:14.616Z,5.23
2018-07-05T08:37:42.069Z,4.37
2018-07-05T08:40:09.499Z,4.37
2018-07-05T08:42:36.951Z,3.83
2018-07-05T08:45:04.383Z,8.40
2018-07-05T08:47:31.877Z,4.07
2018-07-05T08:49:59.316Z,4.17
2018-07-05T08:52:26.741Z,4.63
2018-07-05T08:54:54.176Z,4.10
2018-07-05T08:57:21.597Z,4.73
2018-07-05T08:59:49.046Z,5.30
2018-07-05T09:02:16.465Z,5.00
2018-07-05T09:04:43.999Z,5.20
2018-07-05T09:07:11.454Z,4.30
2018-07-05T09:09:38.872Z,4.17
2018-07-05T09:12:06.309Z,5.83
2018-07-05T09:14:33.730Z,4.40
2018-07-05T09:17:01.185Z,5.60
2018-07-05T09:19:28.598Z,4.60
2018-07-05T09:21:56.013Z,8.43
2018-07-05T09:24:23.455Z,9.10
2018-07-05T09:26:50.927Z,5.20
2018-07-05T09:29:18.360Z,4.23
2018-07-05T09:31:45.812Z,6.67
2018-07-05T09:34:13.241Z,5.37
2018-07-05T09:36:40.725Z,6.57
2018-07-05T09:39:08.266Z,4.00
2018-07-05T09:41:36.566Z,4.23
2018-07-05T09:44:04.339Z,4.53
2018-07-05T09:46:31.791Z,5.50
2018-07-05T09:48:59.224Z,4.90
2018-07-05T09:51:26.666Z,5.23
2018-07-05T09:53:54.151Z,6.67
2018-07-05T09:56:21.833Z,5.60
2018-07-05T09:58:49.268Z,9.13
2018-07-05T10:01:16.706Z,4.30
2018-07-05T10:03:44.222Z,4.20
2018-07-05T10:06:11.602Z,6.37
2018-07-05T10:08:39.276Z,6.83
2018-07-05T10:11:06.771Z,4.67
2018-07-05T10:13:34.310Z,5.20
2018-07-05T10:16:01.718Z,4.50
2018-07-05T10:18:30.223Z,4.90
2018-07-05T10:20:57.697Z,4.33
2018-07-05T10:23:25.144Z,7.30
2018-07-05T10:25:52.556Z,4.90
2018-07-05T10:28:19.996Z,4.70
2018-07-05T10:30:59.874Z,4.77
2018-07-05T10:33:39.693Z,4.70
2018-07-05T10:36:07.100Z,4.57
2018-07-05T10:38:34.517Z,5.30
2018-07-05T10:41:14.293Z,4.77
2018-07-05T10:43:54.198Z,4.90
2018-07-05T10:46:34.164Z,4.90
2018-07-05T10:49:14.193Z,3.90
2018-07-05T10:51:54.032Z,4.17
2018-07-05T10:54:33.773Z,4.77
2018-07-05T10:57:13.504Z,5.00
2018-07-05T10:59:53.388Z,5.13
2018-07-05T11:02:33.171Z,5.37
2018-07-05T11:05:13.014Z,5.20
2018-07-05T11:07:52.889Z,5.07
2018-07-05T11:10:32.846Z,4.77
2018-07-05T11:13:12.726Z,5.00
2018-07-05T11:15:52.557Z,6.63
2018-07-05T11:18:32.297Z,4.53
2018-07-05T11:21:12.212Z,5.00
2018-07-05T11:23:52.076Z,5.90
2018-07-05T11:26:32.020Z,5.63
2018-07-05T11:29:11.739Z,5.77
2018-07-05T11:31:51.500Z,9.93
2018-07-05T11:34:31.345Z,5.50
2018-07-05T11:37:11.277Z,5.70
2018-07-05T11:39:51.112Z,7.87
2018-07-05T11:42:31.059Z,6.10
2018-07-05T11:45:10.890Z,6.20
2018-07-05T11:47:50.562Z,5.83
2018-07-05T11:50:30.345Z,8.50
2018-07-05T11:53:10.073Z,5.67
2018-07-05T11:55:50.010Z,7.33
2018-07-05T11:58:29.856Z,6.70
2018-07-05T12:01:09.643Z,5.50
2018-07-05T12:03:49.417Z,5.90
2018-07-05T12:06:29.329Z,5.57
2018-07-05T12:09:09.876Z,5.60
2018-07-05T12:11:50.197Z,5.77
2018-07-05T12:14:30.038Z,6.13
2018-07-05T12:17:09.880Z,5.43
2018-07-05T12:19:49.766Z,4.93
2018-07-05T12:22:29.572Z,4.47
2018-07-05T12:25:09.510Z,5.00
2018-07-05T12:27:49.217Z,4.87
2018-07-05T12:30:29.125Z,5.40
2018-07-05T12:33:09.090Z,5.57
2018-07-05T12:35:48.958Z,4.30
2018-07-05T12:38:28.933Z,4.80
2018-07-05T12:41:08.598Z,5.03
2018-07-05T12:43:48.210Z,5.40
2018-07-05T12:46:28.218Z,4.80
2018-07-05T12:49:08.166Z,5.13
2018-07-05T12:51:47.988Z,5.13
2018-07-05T12:54:27.677Z,4.83
2018-07-05T12:57:07.514Z,5.83
2018-07-05T12:59:47.236Z,4.47
2018-07-05T13:02:27.182Z,5.27
2018-07-05T13:05:06.909Z,5.17
2018-07-05T13:07:46.793Z,4.80
2018-07-05T13:10:26.761Z,4.93
2018-07-05T13:13:06.673Z,5.00
2018-07-05T13:15:46.502Z,4.80
2018-07-05T13:18:26.400Z,4.67
2018-07-05T13:21:06.170Z,4.60
2018-07-05T13:23:45.964Z,4.97
2018-07-05T13:26:25.780Z,4.77
2018-07-05T13:29:05.433Z,4.33
2018-07-05T13:31:45.345Z,4.53
2018-07-05T13:34:25.297Z,4.43
2018-07-05T13:37:05.165Z,4.57
2018-07-05T13:39:44.998Z,4.43
2018-07-05T13:42:24.801Z,4.37
2018-07-05T13:45:04.793Z,4.60
2018-07-05T13:47:44.612Z,4.67
2018-07-05T13:50:18.461Z,4.43
2018-07-05T13:52:58.421Z,5.03
2018-07-05T13:55:38.321Z,4.00
2018-07-05T13:58:18.113Z,4.83
2018-07-05T14:00:57.873Z,4.80
2018-07-05T14:03:37.688Z,4.80
2018-07-05T14:06:17.657Z,4.83
2018-07-05T14:08:57.662Z,4.80
2018-07-05T14:11:37.174Z,4.63
2018-07-05T14:14:17.086Z,5.70
2018-07-05T14:16:56.969Z,4.70
2018-07-05T14:19:37.007Z,4.63
2018-07-05T14:22:17.055Z,4.23
2018-07-05T14:24:57.008Z,3.90
2018-07-05T14:27:36.910Z,4.50
2018-07-05T14:30:16.788Z,4.13
2018-07-05T14:32:56.707Z,4.03
2018-07-05T14:35:36.667Z,4.43
2018-07-05T14:38:17.110Z,4.53
2018-07-05T14:40:56.961Z,5.17
2018-07-05T14:43:37.044Z,4.23
2018-07-05T14:46:16.917Z,4.60
2018-07-05T14:48:57.982Z,4.80
2018-07-05T14:51:37.908Z,4.83
2018-07-05T14:54:17.768Z,5.30
2018-07-05T14:56:57.890Z,5.20
2018-07-05T14:59:38.243Z,5.13
2018-07-05T15:02:18.207Z,5.60
2018-07-05T15:04:58.153Z,5.63
2018-07-05T15:07:38.056Z,5.30
2018-07-05T15:10:17.873Z,5.40
2018-07-05T15:12:58.322Z,4.83
2018-07-05T15:15:38.203Z,4.97
2018-07-05T15:18:18.033Z,4.97
2018-07-05T15:20:57.812Z,4.80
2018-07-05T15:23:37.591Z,4.60
2018-07-05T15:26:17.386Z,4.10
2018-07-05T15:28:57.043Z,4.87
2018-07-05T15:31:36.882Z,4.50
2018-07-05T15:34:16.909Z,4.93
2018-07-05T15:36:56.584Z,5.17
2018-07-05T15:39:30.371Z,6.70
2018-07-05T15:42:10.196Z,5.37
2018-07-05T15:44:49.920Z,5.57
2018-07-05T15:47:29.827Z,5.43
2018-07-05T15:50:09.613Z,5.10
2018-07-05T15:52:49.425Z,4.90
2018-07-05T15:55:29.109Z,5.87
2018-07-05T15:58:09.121Z,6.40
2018-07-05T16:00:49.096Z,5.77
2018-07-05T16:03:29.153Z,4.73
2018-07-05T16:06:09.160Z,5.67
2018-07-05T16:08:48.864Z,5.33
2018-07-05T16:11:28.813Z,5.13
2018-07-05T16:14:08.601Z,5.30
2018-07-05T16:16:48.368Z,5.37
2018-07-05T16:19:28.147Z,9.67
2018-07-05T16:22:08.429Z,5.13
2018-07-05T16:24:48.145Z,8.97
2018-07-05T16:27:27.980Z,4.93
2018-07-05T16:30:08.052Z,5.73
2018-07-05T16:32:48.101Z,5.20
2018-07-05T16:35:27.967Z,4.93
2018-07-05T16:38:07.779Z,7.50
2018-07-05T16:40:47.557Z,11.30
2018-07-05T16:43:27.425Z,5.20
2018-07-05T16:46:07.288Z,6.40
2018-07-05T16:48:46.972Z,8.40
2018-07-05T16:51:26.806Z,5.50
2018-07-05T16:54:06.642Z,7.70
2018-07-05T16:56:46.449Z,7.03
2018-07-05T16:59:26.402Z,5.87
2018-07-05T17:02:06.476Z,6.37
2018-07-05T17:04:46.209Z,5.60
2018-07-05T17:07:25.982Z,5.80
2018-07-05T17:10:07.439Z,6.17
2018-07-05T17:12:47.321Z,8.20
2018-07-05T17:15:27.055Z,9.90
2018-07-05T17:18:06.964Z,6.03
2018-07-05T17:20:46.761Z,7.60
2018-07-05T17:23:26.559Z,6.50
2018-07-05T17:26:06.409Z,4.70
2018-07-05T17:28:46.370Z,5.80
2018-07-05T17:31:26.246Z,6.00
2018-07-05T17:34:06.302Z,5.47
2018-07-05T17:36:46.081Z,4.80
2018-07-05T17:39:25.888Z,7.03
2018-07-05T17:42:05.873Z,5.23
2018-07-05T17:44:45.752Z,5.37
2018-07-05T17:47:25.670Z,5.60
2018-07-05T17:50:05.647Z,6.93
2018-07-05T17:52:45.384Z,5.43
2018-07-05T17:55:25.199Z,5.63
2018-07-05T17:58:05.084Z,4.67
2018-07-05T18:00:44.895Z,5.57
2018-07-05T18:03:24.853Z,5.00
2018-07-05T18:06:04.702Z,5.33
2018-07-05T18:08:44.474Z,5.27
2018-07-05T18:11:24.281Z,4.93
2018-07-05T18:13:58.172Z,5.67
2018-07-05T18:16:38.066Z,6.27
2018-07-05T18:19:18.023Z,6.57
2018-07-05T18:21:57.974Z,7.40
2018-07-05T18:24:37.770Z,6.50
2018-07-05T18:27:17.807Z,6.50
2018-07-05T18:29:57.795Z,7.07
2018-07-05T18:32:37.710Z,6.97
2018-07-05T18:35:17.519Z,6.27
2018-07-05T18:37:57.493Z,7.40
2018-07-05T18:40:37.444Z,7.07
2018-07-05T18:43:17.056Z,7.43
2018-07-05T18:45:57.004Z,7.23
2018-07-05T18:48:36.930Z,6.73
2018-07-05T18:51:16.751Z,6.83
2018-07-05T18:53:56.852Z,6.10
2018-07-05T18:56:36.926Z,7.00
2018-07-05T18:59:17.048Z,6.73
2018-07-05T19:01:57.131Z,4.70
2018-07-05T19:04:36.823Z,4.37
2018-07-05T19:07:16.619Z,3.90
2018-07-05T19:09:56.698Z,3.70
2018-07-05T19:12:36.480Z,3.40
2018-07-05T19:15:16.341Z,3.57
2018-07-05T19:17:56.284Z,4.57
2018-07-05T19:20:36.237Z,3.60
2018-07-05T19:23:16.040Z,3.50
2018-07-05T19:25:55.918Z,3.90
2018-07-05T19:28:35.822Z,4.43
2018-07-05T19:31:15.743Z,3.50
2018-07-05T19:33:55.600Z,5.10
2018-07-05T19:36:35.229Z,4.40
2018-07-05T19:39:15.162Z,4.80
2018-07-05T19:41:55.119Z,4.37
2018-07-05T19:44:34.924Z,5.60
2018-07-05T19:47:14.755Z,3.77
2018-07-05T19:49:54.490Z,5.73
2018-07-05T19:52:34.471Z,3.50
2018-07-05T19:55:14.392Z,4.83
2018-07-05T19:57:54.495Z,4.90
2018-07-05T20:00:34.643Z,4.67
2018-07-05T20:03:14.611Z,4.60
2018-07-05T20:05:54.670Z,4.23
2018-07-05T20:08:34.901Z,4.40
2018-07-05T20:11:14.875Z,5.90
2018-07-05T20:13:54.954Z,6.17
2018-07-05T20:16:35.334Z,4.57
2018-07-05T20:19:15.367Z,4.37
2018-07-05T20:21:55.365Z,5.23
2018-07-05T20:24:35.448Z,4.77
2018-07-05T20:27:15.308Z,5.93
2018-07-05T20:29:55.133Z,7.33
2018-07-05T20:32:35.392Z,5.37
2018-07-05T20:35:15.363Z,4.77
2018-07-05T20:37:55.361Z,5.60
2018-07-05T20:40:35.355Z,5.40
2018-07-05T20:43:15.174Z,5.60
2018-07-05T20:45:55.290Z,6.13
2018-07-05T20:48:35.284Z,5.63
2018-07-05T20:51:15.356Z,5.90
2018-07-05T20:53:55.430Z,6.03
2018-07-05T20:56:35.254Z,5.80
2018-07-05T20:59:15.395Z,6.47
2018-07-05T21:01:55.325Z,6.20
2018-07-05T21:04:35.359Z,6.13
2018-07-05T21:07:15.334Z,6.30
2018-07-05T21:09:55.206Z,6.10
2018-07-05T21:12:35.264Z,6.87
2018-07-05T21:15:15.282Z,6.53
2018-07-05T21:17:56.782Z,6.17
2018-07-05T21:20:37.226Z,6.40
2018-07-05T21:23:17.078Z,6.70
2018-07-05T21:25:56.857Z,7.23
2018-07-05T21:28:36.948Z,7.43
2018-07-05T21:31:17.010Z,7.77
2018-07-05T21:33:56.968Z,7.43
2018-07-05T21:36:36.712Z,7.43
2018-07-05T21:39:16.737Z,6.60
2018-07-05T21:41:56.549Z,6.53
2018-07-05T21:44:36.732Z,7.47
2018-07-05T21:47:16.660Z,7.70
2018-07-05T21:49:50.532Z,7.07
2018-07-05T21:52:30.452Z,7.90
2018-07-05T21:55:10.488Z,7.10
2018-07-05T21:57:50.322Z,8.47
2018-07-05T22:00:30.161Z,7.90
2018-07-05T22:03:10.392Z,7.93
2018-07-05T22:05:50.269Z,8.20
2018-07-05T22:08:30.219Z,8.53
2018-07-05T22:11:10.137Z,8.57
2018-07-05T22:13:50.118Z,8.67
2018-07-05T22:16:29.924Z,7.70
2018-07-05T22:19:15.112Z,8.20
2018-07-05T22:22:00.348Z,7.87
2018-07-05T22:24:45.551Z,7.97
2018-07-05T22:27:30.688Z,8.20
2018-07-05T22:30:15.980Z,7.60
2018-07-05T22:32:55.900Z,8.50
2018-07-05T22:35:35.795Z,7.77
2018-07-05T22:38:15.742Z,8.57
2018-07-05T22:40:55.514Z,8.70
2018-07-05T22:43:35.226Z,9.50
2018-07-05T22:46:15.173Z,7.70
2018-07-05T22:48:55.168Z,8.17
2018-07-05T22:51:35.080Z,8.07
2018-07-05T22:54:15.023Z,7.57
2018-07-05T22:56:54.939Z,9.13
2018-07-05T22:59:34.821Z,8.50
2018-07-05T23:02:14.742Z,9.30
2018-07-05T23:04:54.636Z,9.90
2018-07-05T23:07:34.565Z,9.40
2018-07-05T23:10:14.487Z,8.60
2018-07-05T23:12:54.537Z,9.27
2018-07-05T23:15:34.431Z,8.57
2018-07-05T23:18:14.225Z,8.27
2018-07-05T23:20:54.099Z,9.17
2018-07-05T23:23:33.916Z,9.63
2018-07-05T23:26:13.806Z,9.97
2018-07-05T23:28:53.727Z,9.27
2018-07-05T23:31:33.661Z,10.50
2018-07-05T23:34:13.473Z,9.90
2018-07-05T23:36:53.476Z,9.87
2018-07-05T23:39:33.437Z,9.43
2018-07-05T23:42:13.332Z,8.63
2018-07-05T23:44:53.225Z,9.13
2018-07-05T23:47:33.124Z,9.90
2018-07-05T23:50:12.950Z,9.13
2018-07-05T23:52:52.672Z,8.87
2018-07-05T23:55:32.589Z,9.43
2018-07-05T23:58:12.523Z,9.73
